createdAt,value
2017-12-02T00:00:29.559Z,16.80
2017-12-02T00:02:56.196Z,17.40
2017-12-02T00:05:23.266Z,17.80
2017-12-02T00:07:49.833Z,17.63
2017-12-02T00:10:16.372Z,17.00
2017-12-02T00:12:43.053Z,18.37
2017-12-02T00:15:09.309Z,17.77
2017-12-02T00:17:35.702Z,18.17
2017-12-02T00:22:34.351Z,18.87
2017-12-02T00:25:00.833Z,18.43
2017-12-02T00:27:27.407Z,18.20
2017-12-02T00:29:54.026Z,17.03
2017-12-02T00:32:20.499Z,19.03
2017-12-02T00:34:47.027Z,19.37
2017-12-02T00:37:14.266Z,18.00
2017-12-02T00:39:40.556Z,17.80
2017-12-02T00:42:09.243Z,18.37
2017-12-02T00:44:36.415Z,19.97
2017-12-02T00:47:02.815Z,20.23
2017-12-02T00:49:30.943Z,19.20
2017-12-02T00:51:58.566Z,19.60
2017-12-02T00:54:27.720Z,19.67
2017-12-02T00:56:55.524Z,19.87
2017-12-02T00:59:21.995Z,18.97
2017-12-02T01:01:49.428Z,20.13
2017-12-02T01:04:17.777Z,18.30
2017-12-02T01:06:45.057Z,20.00
2017-12-02T01:09:12.747Z,19.20
2017-12-02T01:11:39.088Z,17.90
2017-12-02T01:14:05.679Z,19.37
2017-12-02T01:16:32.908Z,18.77
2017-12-02T01:18:59.659Z,20.00
2017-12-02T01:21:26.008Z,18.40
2017-12-02T01:23:52.538Z,19.50
2017-12-02T01:26:18.907Z,20.30
2017-12-02T01:28:45.290Z,20.30
2017-12-02T01:31:11.559Z,18.10
2017-12-02T01:33:38.891Z,21.40
2017-12-02T01:36:05.448Z,20.27
2017-12-02T01:38:31.734Z,18.70
2017-12-02T01:40:58.208Z,19.30
2017-12-02T01:43:25.380Z,18.60
2017-12-02T01:45:53.308Z,19.60
2017-12-02T01:48:19.575Z,20.00
2017-12-02T01:50:46.728Z,21.37
2017-12-02T01:53:15.378Z,20.00
2017-12-02T01:55:42.988Z,19.73
2017-12-02T01:58:13.324Z,19.57
2017-12-02T02:00:41.298Z,21.07
2017-12-02T02:03:08.229Z,19.07
2017-12-02T02:05:38.266Z,20.90
2017-12-02T02:08:05.510Z,19.07
2017-12-02T02:10:32.493Z,19.40
2017-12-02T02:12:59.006Z,19.90
2017-12-02T02:15:25.345Z,18.80
2017-12-02T02:17:52.114Z,20.87
2017-12-02T02:20:21.545Z,21.20
2017-12-02T02:22:49.616Z,19.73
2017-12-02T02:25:16.025Z,19.60
2017-12-02T02:27:43.827Z,21.77
2017-12-02T02:30:10.389Z,20.20
2017-12-02T02:32:37.505Z,20.87
2017-12-02T02:35:04.717Z,20.27
2017-12-02T02:37:31.621Z,20.17
2017-12-02T02:39:59.176Z,20.00
2017-12-02T02:42:25.782Z,17.77
2017-12-02T02:44:52.096Z,20.27
2017-12-02T02:47:19.307Z,21.53
2017-12-02T02:49:45.494Z,21.77
2017-12-02T02:52:14.522Z,20.10
2017-12-02T02:54:41.046Z,21.40
2017-12-02T02:57:07.358Z,21.67
2017-12-02T02:59:34.549Z,19.77
2017-12-02T03:02:00.878Z,20.47
2017-12-02T03:04:27.566Z,19.13
2017-12-02T03:06:54.308Z,19.07
2017-12-02T03:09:20.710Z,21.07
2017-12-02T03:11:47.704Z,20.97
2017-12-02T03:14:14.013Z,20.70
2017-12-02T03:16:40.927Z,20.97
2017-12-02T03:19:08.294Z,19.33
2017-12-02T03:21:34.697Z,23.00
2017-12-02T03:24:01.084Z,22.27
2017-12-02T03:26:28.015Z,22.03
2017-12-02T03:28:54.376Z,21.93
2017-12-02T03:31:22.939Z,22.17
2017-12-02T03:33:49.175Z,20.10
2017-12-02T03:36:15.596Z,21.60
2017-12-02T03:38:42.435Z,23.70
2017-12-02T03:41:08.811Z,21.47
2017-12-02T03:43:36.669Z,22.83
2017-12-02T03:46:03.878Z,22.80
2017-12-02T03:48:30.344Z,22.90
2017-12-02T03:50:56.775Z,23.27
2017-12-02T03:53:23.149Z,21.43
2017-12-02T03:55:50.515Z,22.97
2017-12-02T03:58:17.292Z,22.97
2017-12-02T04:00:43.476Z,21.27
2017-12-02T04:03:09.705Z,23.43
2017-12-02T04:05:36.153Z,22.03
2017-12-02T04:08:02.405Z,21.83
2017-12-02T04:10:29.255Z,23.17
2017-12-02T04:12:55.792Z,21.23
2017-12-02T04:15:22.975Z,22.50
2017-12-02T04:17:50.097Z,20.93
2017-12-02T04:20:16.994Z,21.57
2017-12-02T04:22:44.241Z,22.60
2017-12-02T04:25:10.698Z,20.57
2017-12-02T04:27:37.116Z,19.40
2017-12-02T04:30:04.478Z,21.80
2017-12-02T04:32:30.860Z,21.00
2017-12-02T04:34:58.054Z,20.60
2017-12-02T04:37:24.723Z,20.90
2017-12-02T04:39:51.128Z,20.80
2017-12-02T04:42:18.123Z,19.77
2017-12-02T04:44:45.264Z,22.00
2017-12-02T04:47:12.535Z,20.80
2017-12-02T04:49:40.470Z,22.87
2017-12-02T04:52:06.814Z,24.23
2017-12-02T04:54:33.925Z,23.00
2017-12-02T04:57:00.121Z,21.73
2017-12-02T04:59:26.316Z,22.80
2017-12-02T05:01:53.394Z,21.40
2017-12-02T05:04:19.798Z,20.63
2017-12-02T05:06:46.978Z,22.10
2017-12-02T05:09:13.275Z,21.23
2017-12-02T05:11:40.538Z,22.53
2017-12-02T05:14:07.459Z,19.80
2017-12-02T05:16:34.715Z,23.93
2017-12-02T05:19:01.705Z,23.67
2017-12-02T05:21:28.097Z,22.97
2017-12-02T05:23:54.539Z,25.10
2017-12-02T05:26:21.681Z,22.33
2017-12-02T05:28:48.145Z,24.20
2017-12-02T05:31:15.168Z,21.57
2017-12-02T05:33:42.901Z,23.20
2017-12-02T05:36:09.274Z,23.13
2017-12-02T05:38:35.502Z,24.80
2017-12-02T05:41:02.215Z,23.27
2017-12-02T05:43:30.879Z,23.77
2017-12-02T05:45:57.943Z,24.13
2017-12-02T05:48:25.367Z,22.70
2017-12-02T05:50:51.627Z,23.83
2017-12-02T05:53:18.789Z,22.70
2017-12-02T05:55:45.314Z,24.00
2017-12-02T05:58:12.726Z,23.97
2017-12-02T06:00:39.300Z,23.00
2017-12-02T06:03:06.543Z,26.60
2017-12-02T06:05:32.917Z,25.73
2017-12-02T06:07:59.246Z,23.33
2017-12-02T06:10:25.861Z,24.10
2017-12-02T06:12:52.318Z,27.23
2017-12-02T06:15:18.636Z,26.90
2017-12-02T06:17:45.138Z,26.43
2017-12-02T06:20:12.175Z,26.13
2017-12-02T06:22:38.647Z,26.60
2017-12-02T06:25:06.267Z,25.70
2017-12-02T06:27:32.916Z,25.67
2017-12-02T06:30:00.127Z,25.53
2017-12-02T06:32:26.981Z,23.17
2017-12-02T06:34:53.606Z,24.23
2017-12-02T06:37:19.933Z,23.70
2017-12-02T06:39:46.512Z,22.83
2017-12-02T06:42:14.827Z,23.80
2017-12-02T06:44:41.907Z,24.93
2017-12-02T06:47:09.570Z,24.57
2017-12-02T06:49:36.057Z,23.30
2017-12-02T06:52:03.487Z,21.87
2017-12-02T06:54:30.968Z,23.00
2017-12-02T06:56:57.614Z,24.03
2017-12-02T06:59:24.086Z,24.77
2017-12-02T07:01:52.137Z,23.20
2017-12-02T07:04:18.777Z,19.93
2017-12-02T07:06:46.837Z,20.73
2017-12-02T07:09:13.989Z,20.17
2017-12-02T07:11:41.388Z,18.43
2017-12-02T07:14:08.520Z,19.57
2017-12-02T07:16:35.189Z,18.97
2017-12-02T07:19:01.696Z,20.53
2017-12-02T07:21:28.189Z,18.27
2017-12-02T07:23:54.555Z,21.10
2017-12-02T07:26:21.196Z,18.00
2017-12-02T07:28:48.416Z,19.83
2017-12-02T07:31:18.688Z,19.00
2017-12-02T07:33:45.890Z,19.40
2017-12-02T07:36:12.737Z,20.57
2017-12-02T07:38:39.400Z,21.20
2017-12-02T07:41:05.836Z,19.50
2017-12-02T07:43:33.377Z,21.40
2017-12-02T07:45:59.984Z,20.00
2017-12-02T07:48:26.584Z,17.60
2017-12-02T07:50:53.027Z,21.10
2017-12-02T07:53:20.607Z,20.50
2017-12-02T07:55:47.257Z,21.00
2017-12-02T07:58:14.118Z,17.47
2017-12-02T08:00:41.723Z,17.80
2017-12-02T08:03:08.987Z,21.27
2017-12-02T08:05:35.817Z,18.57
2017-12-02T08:08:02.448Z,21.43
2017-12-02T08:10:30.294Z,18.97
2017-12-02T08:12:57.676Z,21.57
2017-12-02T08:15:24.426Z,20.13
2017-12-02T08:17:50.906Z,20.57
2017-12-02T08:20:17.443Z,20.37
2017-12-02T08:22:45.549Z,20.47
2017-12-02T08:25:12.807Z,18.50
2017-12-02T08:27:39.538Z,17.93
2017-12-02T08:30:06.298Z,17.57
2017-12-02T08:32:32.776Z,18.70
2017-12-02T08:34:59.490Z,19.27
2017-12-02T08:37:25.956Z,20.10
2017-12-02T08:39:53.357Z,18.90
2017-12-02T08:42:21.127Z,20.23
2017-12-02T08:44:47.886Z,19.33
2017-12-02T08:47:14.727Z,19.90
2017-12-02T08:49:42.076Z,19.87
2017-12-02T08:52:09.546Z,19.43
2017-12-02T08:54:37.956Z,21.57
2017-12-02T08:57:05.466Z,21.13
2017-12-02T08:59:32.987Z,20.30
2017-12-02T09:02:02.006Z,20.47
2017-12-02T09:04:29.470Z,20.40
2017-12-02T09:06:56.702Z,20.90
2017-12-02T09:09:24.705Z,20.20
2017-12-02T09:11:51.916Z,23.00
2017-12-02T09:14:19.616Z,20.50
2017-12-02T09:16:46.148Z,21.10
2017-12-02T09:19:12.596Z,21.63
2017-12-02T09:21:39.896Z,21.70
2017-12-02T09:24:06.416Z,21.90
2017-12-02T09:26:33.066Z,21.07
2017-12-02T09:28:59.777Z,22.67
2017-12-02T09:31:26.546Z,22.23
2017-12-02T09:33:53.847Z,22.83
2017-12-02T09:36:21.036Z,22.13
2017-12-02T09:38:47.586Z,22.33
2017-12-02T09:41:15.637Z,20.53
2017-12-02T09:43:42.196Z,23.60
2017-12-02T09:46:08.687Z,22.50
2017-12-02T09:48:37.456Z,22.37
2017-12-02T09:51:04.446Z,24.90
2017-12-02T09:53:31.017Z,24.13
2017-12-02T09:55:58.016Z,20.77
2017-12-02T09:58:24.927Z,21.70
2017-12-02T10:00:51.320Z,24.00
2017-12-02T10:03:18.532Z,23.73
2017-12-02T10:05:44.795Z,24.10
2017-12-02T10:08:11.148Z,22.63
2017-12-02T10:10:37.395Z,21.87
2017-12-02T10:13:04.907Z,21.67
2017-12-02T10:15:31.320Z,20.30
2017-12-02T10:17:57.742Z,21.20
2017-12-02T10:20:25.939Z,17.97
2017-12-02T10:22:52.366Z,21.47
2017-12-02T10:25:19.323Z,20.83
2017-12-02T10:27:45.662Z,19.87
2017-12-02T10:30:12.114Z,22.87
2017-12-02T10:32:38.602Z,20.60
2017-12-02T10:35:05.207Z,20.20
2017-12-02T10:37:32.158Z,20.60
2017-12-02T10:40:00.720Z,19.80
2017-12-02T10:42:27.117Z,19.17
2017-12-02T10:44:55.682Z,18.43
2017-12-02T10:47:22.312Z,19.37
2017-12-02T10:49:49.202Z,19.50
2017-12-02T10:52:15.678Z,19.87
2017-12-02T10:54:41.899Z,19.30
2017-12-02T10:57:08.146Z,17.93
2017-12-02T10:59:34.482Z,19.23
2017-12-02T11:02:01.245Z,19.23
2017-12-02T11:04:27.696Z,18.40
2017-12-02T11:06:54.244Z,17.93
2017-12-02T11:09:21.399Z,20.07
2017-12-02T11:11:48.363Z,19.80
2017-12-02T11:14:14.794Z,19.33
2017-12-02T11:16:41.246Z,19.53
2017-12-02T11:19:07.581Z,21.80
2017-12-02T11:21:34.836Z,17.40
2017-12-02T11:24:02.166Z,16.73
2017-12-02T11:26:28.857Z,18.67
2017-12-02T11:28:55.154Z,19.77
2017-12-02T11:31:21.694Z,17.67
2017-12-02T11:33:47.909Z,19.20
2017-12-02T11:36:15.759Z,20.17
2017-12-02T11:38:42.950Z,18.53
2017-12-02T11:41:09.467Z,16.83
2017-12-02T11:43:35.744Z,18.37
2017-12-02T11:46:02.829Z,18.93
2017-12-02T11:48:29.286Z,19.00
2017-12-02T11:50:56.084Z,17.47
2017-12-02T11:53:22.495Z,17.03
2017-12-02T11:55:49.335Z,18.43
2017-12-02T11:58:16.343Z,16.40
2017-12-02T12:00:44.352Z,18.53
2017-12-02T12:03:11.559Z,18.57
2017-12-02T12:05:37.882Z,17.47
2017-12-02T12:08:05.215Z,17.10
2017-12-02T12:10:31.558Z,17.47
2017-12-02T12:12:58.504Z,18.10
2017-12-02T12:15:26.404Z,17.83
2017-12-02T12:17:53.836Z,16.53
2017-12-02T12:20:22.167Z,16.50
2017-12-02T12:22:48.465Z,17.03
2017-12-02T12:25:14.725Z,18.90
2017-12-02T12:27:40.889Z,18.17
2017-12-02T12:30:07.100Z,19.80
2017-12-02T12:32:33.263Z,16.87
2017-12-02T12:34:59.440Z,19.13
2017-12-02T12:37:25.779Z,17.30
2017-12-02T12:39:52.110Z,18.70
2017-12-02T12:42:18.387Z,16.87
2017-12-02T12:44:44.714Z,17.60
2017-12-02T12:47:11.098Z,15.90
2017-12-02T12:49:38.060Z,17.30
2017-12-02T12:52:04.379Z,17.77
2017-12-02T12:54:31.851Z,19.00
2017-12-02T12:56:58.324Z,20.33
2017-12-02T12:59:25.613Z,19.47
2017-12-02T13:01:51.768Z,18.90
2017-12-02T13:04:17.943Z,17.20
2017-12-02T13:06:44.137Z,16.97
2017-12-02T13:09:10.332Z,19.00
2017-12-02T13:11:36.494Z,19.60
2017-12-02T13:14:03.577Z,18.87
2017-12-02T13:16:29.841Z,18.60
2017-12-02T13:18:55.991Z,17.60
2017-12-02T13:21:22.194Z,21.40
2017-12-02T13:23:48.654Z,21.17
2017-12-02T13:26:15.563Z,18.93
2017-12-02T13:28:41.749Z,17.67
2017-12-02T13:31:08.008Z,18.17
2017-12-02T13:33:35.183Z,17.97
2017-12-02T13:36:01.541Z,18.70
2017-12-02T13:38:28.115Z,17.13
2017-12-02T13:40:54.542Z,17.00
2017-12-02T13:43:22.441Z,15.80
2017-12-02T13:45:48.660Z,17.20
2017-12-02T13:48:14.874Z,16.87
2017-12-02T13:50:41.251Z,17.17
2017-12-02T13:53:09.250Z,16.83
2017-12-02T13:55:35.565Z,16.73
2017-12-02T13:58:02.727Z,16.50
2017-12-02T14:00:29.415Z,16.47
2017-12-02T14:02:55.610Z,16.90
2017-12-02T14:05:22.787Z,15.20
2017-12-02T14:07:48.994Z,15.80
2017-12-02T14:10:15.330Z,15.90
2017-12-02T14:12:41.521Z,15.20
2017-12-02T14:15:07.787Z,16.30
2017-12-02T14:17:33.977Z,15.50
2017-12-02T14:20:00.341Z,16.10
2017-12-02T14:22:26.536Z,14.20
2017-12-02T14:24:52.921Z,16.00
2017-12-02T14:27:20.745Z,13.40
2017-12-02T14:29:48.599Z,14.43
2017-12-02T14:32:15.008Z,14.53
2017-12-02T14:34:41.200Z,14.47
2017-12-02T14:37:07.383Z,13.10
2017-12-02T14:39:33.603Z,13.10
2017-12-02T14:41:59.791Z,13.30
2017-12-02T14:44:25.965Z,14.77
2017-12-02T14:46:52.767Z,15.40
2017-12-02T14:49:19.985Z,15.23
2017-12-02T14:51:46.168Z,13.20
2017-12-02T14:54:12.501Z,14.30
2017-12-02T14:56:38.890Z,13.50
2017-12-02T14:59:05.064Z,12.30
2017-12-02T15:01:31.303Z,13.80
2017-12-02T15:04:00.532Z,13.70
2017-12-02T15:06:27.283Z,13.90
2017-12-02T15:08:53.669Z,15.00
2017-12-02T15:11:19.869Z,14.30
2017-12-02T15:13:46.130Z,13.63
2017-12-02T15:16:12.284Z,14.37
2017-12-02T15:18:38.601Z,13.90
2017-12-02T15:21:07.715Z,14.10
2017-12-02T15:23:34.058Z,14.70
2017-12-02T15:26:00.990Z,14.37
2017-12-02T15:28:27.331Z,13.73
2017-12-02T15:30:54.594Z,19.40
2017-12-02T15:33:21.671Z,18.30
2017-12-02T15:35:48.041Z,17.97
2017-12-02T15:38:14.736Z,17.40
2017-12-02T15:40:40.932Z,18.57
2017-12-02T15:43:08.737Z,21.93
2017-12-02T15:45:35.079Z,20.03
2017-12-02T15:48:01.704Z,17.40
2017-12-02T15:50:28.775Z,19.30
2017-12-02T15:52:57.022Z,18.60
2017-12-02T15:55:23.755Z,19.70
2017-12-02T15:57:50.168Z,22.57
2017-12-02T16:00:16.615Z,18.50
2017-12-02T16:02:42.900Z,22.33
2017-12-02T16:05:09.873Z,22.03
2017-12-02T16:07:37.314Z,24.33
2017-12-02T16:10:04.297Z,23.60
2017-12-02T16:12:31.858Z,25.67
2017-12-02T16:14:58.079Z,23.37
2017-12-02T16:17:25.028Z,23.80
2017-12-02T16:19:51.933Z,22.33
2017-12-02T16:22:19.229Z,25.77
2017-12-02T16:24:45.593Z,23.93
2017-12-02T16:27:11.994Z,23.27
2017-12-02T16:29:38.364Z,25.13
2017-12-02T16:32:05.558Z,24.97
2017-12-02T16:34:31.740Z,23.10
2017-12-02T16:36:58.711Z,27.23
2017-12-02T16:39:24.924Z,24.90
2017-12-02T16:41:51.991Z,24.83
2017-12-02T16:44:19.042Z,22.97
2017-12-02T16:46:45.531Z,20.97
2017-12-02T16:49:12.122Z,21.63
2017-12-02T16:51:38.482Z,22.70
2017-12-02T16:54:04.904Z,22.00
2017-12-02T16:56:31.107Z,21.70
2017-12-02T16:58:57.724Z,20.90
2017-12-02T17:01:23.955Z,21.80
2017-12-02T17:03:50.330Z,19.70
2017-12-02T17:06:16.841Z,19.93
2017-12-02T17:08:43.200Z,23.03
2017-12-02T17:11:09.380Z,22.03
2017-12-02T17:13:35.760Z,22.57
2017-12-02T17:16:01.985Z,22.83
2017-12-02T17:18:29.275Z,20.77
2017-12-02T17:20:55.584Z,22.53
2017-12-02T17:23:22.531Z,23.17
2017-12-02T17:25:49.652Z,22.50
2017-12-02T17:28:16.484Z,24.67
2017-12-02T17:30:43.502Z,23.77
2017-12-02T17:33:09.898Z,23.27
2017-12-02T17:35:36.823Z,23.33
2017-12-02T17:38:04.407Z,23.40
2017-12-02T17:40:31.381Z,23.90
2017-12-02T17:42:58.734Z,21.63
2017-12-02T17:45:25.855Z,23.70
2017-12-02T17:47:53.643Z,22.57
2017-12-02T17:50:20.031Z,23.33
2017-12-02T17:52:47.124Z,23.53
2017-12-02T17:55:13.300Z,21.80
2017-12-02T17:57:39.677Z,23.07
2017-12-02T18:00:06.024Z,22.90
2017-12-02T18:02:33.378Z,20.30
2017-12-02T18:05:01.367Z,21.00
2017-12-02T18:07:27.760Z,22.07
2017-12-02T18:09:54.192Z,23.37
2017-12-02T18:12:20.460Z,20.30
2017-12-02T18:14:46.831Z,23.40
2017-12-02T18:17:14.412Z,24.07
2017-12-02T18:19:40.772Z,22.30
2017-12-02T18:22:06.960Z,21.80
2017-12-02T18:24:34.526Z,21.90
2017-12-02T18:27:00.910Z,22.57
2017-12-02T18:29:27.355Z,21.87
2017-12-02T18:31:53.685Z,20.00
2017-12-02T18:34:20.953Z,22.57
2017-12-02T18:36:47.187Z,21.63
2017-12-02T18:39:13.499Z,19.43
2017-12-02T18:41:40.571Z,21.27
2017-12-02T18:44:10.968Z,22.33
2017-12-02T18:46:38.188Z,21.83
2017-12-02T18:49:04.592Z,22.80
2017-12-02T18:51:30.945Z,21.50
2017-12-02T18:53:57.162Z,21.93
2017-12-02T18:56:23.469Z,20.57
2017-12-02T18:58:49.859Z,20.73
2017-12-02T19:01:16.990Z,21.67
2017-12-02T19:03:44.679Z,19.87
2017-12-02T19:06:10.872Z,19.23
2017-12-02T19:08:37.385Z,20.17
2017-12-02T19:11:03.789Z,18.13
2017-12-02T19:13:31.669Z,20.93
2017-12-02T19:15:57.852Z,20.23
2017-12-02T19:18:26.858Z,19.93
2017-12-02T19:20:54.080Z,21.57
2017-12-02T19:23:20.657Z,22.07
2017-12-02T19:25:49.860Z,21.07
2017-12-02T19:28:16.677Z,20.47
2017-12-02T19:30:44.160Z,21.77
2017-12-02T19:33:11.091Z,20.80
2017-12-02T19:35:39.690Z,20.70
2017-12-02T19:38:07.457Z,21.17
2017-12-02T19:40:33.851Z,21.70
2017-12-02T19:43:02.612Z,19.77
2017-12-02T19:45:29.195Z,21.40
2017-12-02T19:47:55.452Z,20.07
2017-12-02T19:50:21.641Z,21.30
2017-12-02T19:52:48.738Z,19.10
2017-12-02T19:55:15.065Z,20.27
2017-12-02T19:57:41.905Z,20.13
2017-12-02T20:00:08.896Z,20.40
2017-12-02T20:02:35.226Z,19.30
2017-12-02T20:05:01.466Z,21.27
2017-12-02T20:07:27.845Z,21.17
2017-12-02T20:09:54.262Z,22.50
2017-12-02T20:12:21.137Z,20.90
2017-12-02T20:14:49.505Z,20.87
2017-12-02T20:17:16.451Z,21.20
2017-12-02T20:19:43.795Z,20.53
2017-12-02T20:22:10.135Z,22.00
2017-12-02T20:24:36.625Z,21.33
2017-12-02T20:27:02.969Z,19.83
2017-12-02T20:29:29.272Z,21.37
2017-12-02T20:31:55.591Z,21.10
2017-12-02T20:34:22.058Z,20.60
2017-12-02T20:36:55.081Z,20.23
2017-12-02T20:39:22.682Z,18.27
2017-12-02T20:41:48.961Z,19.87
2017-12-02T20:44:15.272Z,20.67
2017-12-02T20:46:41.718Z,19.07
2017-12-02T20:49:07.991Z,18.93
2017-12-02T20:51:34.304Z,20.50
2017-12-02T20:54:00.502Z,18.87
2017-12-02T20:56:27.169Z,18.63
2017-12-02T20:58:54.211Z,19.33
2017-12-02T21:01:22.146Z,18.73
2017-12-02T21:03:48.547Z,19.77
2017-12-02T21:06:15.053Z,20.77
2017-12-02T21:08:41.550Z,20.13
2017-12-02T21:11:13.718Z,19.77
2017-12-02T21:13:40.122Z,22.50
2017-12-02T21:16:06.341Z,21.17
2017-12-02T21:18:33.038Z,21.37
2017-12-02T21:21:01.116Z,21.00
2017-12-02T21:23:27.481Z,21.13
2017-12-02T21:25:53.716Z,20.23
2017-12-02T21:28:19.981Z,20.20
2017-12-02T21:30:47.093Z,21.37
2017-12-02T21:33:13.772Z,19.70
2017-12-02T21:35:40.816Z,20.60
2017-12-02T21:38:07.089Z,20.30
2017-12-02T21:40:33.488Z,20.17
2017-12-02T21:43:00.526Z,20.50
2017-12-02T21:45:27.655Z,19.80
2017-12-02T21:47:53.991Z,22.30
2017-12-02T21:50:21.418Z,21.13
2017-12-02T21:52:47.773Z,20.10
2017-12-02T21:55:14.160Z,21.73
2017-12-02T21:57:40.531Z,21.40
2017-12-02T22:00:08.513Z,21.47
2017-12-02T22:02:35.567Z,20.70
2017-12-02T22:05:02.662Z,19.40
2017-12-02T22:07:29.035Z,21.70
2017-12-02T22:09:56.132Z,22.37
2017-12-02T22:12:22.555Z,21.37
2017-12-02T22:14:49.166Z,19.73
2017-12-02T22:17:15.666Z,21.20
2017-12-02T22:19:42.865Z,22.23
2017-12-02T22:22:09.575Z,20.77
2017-12-02T22:24:36.741Z,21.50
2017-12-02T22:27:04.106Z,24.43
2017-12-02T22:29:30.925Z,24.20
2017-12-02T22:31:58.075Z,25.43
2017-12-02T22:34:25.418Z,22.80
2017-12-02T22:36:52.625Z,21.07
2017-12-02T22:39:19.135Z,20.90
2017-12-02T22:41:45.604Z,20.57
2017-12-02T22:44:12.093Z,20.90
2017-12-02T22:46:38.535Z,20.70
2017-12-02T22:49:04.757Z,19.13
2017-12-02T22:51:31.004Z,20.67
2017-12-02T22:53:57.179Z,21.23
2017-12-02T22:56:24.120Z,20.80
2017-12-02T22:58:51.374Z,20.73
2017-12-02T23:01:18.356Z,19.53
2017-12-02T23:03:44.560Z,20.27
2017-12-02T23:06:11.519Z,19.60
2017-12-02T23:08:37.730Z,21.67
2017-12-02T23:11:06.247Z,20.10
2017-12-02T23:13:32.432Z,19.87
2017-12-02T23:15:59.337Z,19.47
2017-12-02T23:18:25.514Z,19.63
2017-12-02T23:20:51.734Z,20.80
2017-12-02T23:23:18.800Z,21.43
2017-12-02T23:25:44.979Z,21.17
2017-12-02T23:28:11.219Z,19.90
2017-12-02T23:30:38.124Z,19.97
2017-12-02T23:33:04.296Z,18.73
2017-12-02T23:35:31.224Z,19.37
2017-12-02T23:37:57.520Z,21.80
2017-12-02T23:40:23.719Z,20.10
2017-12-02T23:42:49.900Z,19.83
2017-12-02T23:45:16.787Z,20.47
2017-12-02T23:47:43.138Z,20.67
2017-12-02T23:50:09.318Z,21.00
2017-12-02T23:52:36.239Z,20.80
2017-12-02T23:55:02.506Z,19.40
2017-12-02T23:57:29.026Z,20.07
2017-12-02T23:59:55.924Z,17.73
